Urb Sunrise, Puerto Rico
Current Conditions -  °F | °C
As of 6:53 AM on Thursday 18 Dec 2014 (Local Time) from TJNR Reporting Station
Few Clouds Few Clouds  
Wind Chill: 77°   Ceiling: Unl
Heat Index: 79°   Visibility: 10mi
Dew Point: 66°   Wind: 10mph
Humidity: 69%   Direction: 20°NNE
Pressure: 30.03"   Gusts: NA
Location:  18.1494°N, 65.8294°W
Report Text: TJNR 181053Z AUTO 02009KT 10SM FEW037 25/19 A3003 RMK AO2 SLP170 T02500189 $
Loading
Personal Weather Stations






























Interactive Weather Map New forecast layout! Learn more

10-Day Weather Forecast

Advertisements
Track Severe Weather on mobile